Time;durP1;ratioP1;P1;durP2;ratioP2;P2;SDS_P1;SDS_P2;PMS_P1;PMS_P2;Temp;Humidity;BMP_temperature;BMP_pressure;BME280_temperature;BME280_humidity;BME280_pressure;Samples;Min_cycle;Max_cycle;Signal;HPM_P1;HPM_P2
2021/08/20 00:00:46;;;;;;;;;;;;;;;20.35;100.00;98926.22;4997265;28;20453;-80
2021/08/20 00:03:11;;;;;;;;;;;;;;;20.27;100.00;98932.84;4994281;28;19956;-81
2021/08/20 00:05:37;;;;;;;;;;;;;;;20.20;96.26;98936.00;4995803;28;19918;-79
2021/08/20 00:08:02;;;;;;;;;;;;;;;20.35;100.00;98927.03;4996319;28;20617;-80
2021/08/20 00:10:27;;;;;;;;;;;;;;;20.24;100.00;98929.59;4996613;28;19921;-81
2021/08/20 00:12:53;;;;;;;;;;;;;;;20.26;95.01;98917.25;4994075;28;19933;-79
2021/08/20 00:15:18;;;;;;;;;;;;;;;20.42;94.80;98923.03;4982823;28;19921;-79
2021/08/20 00:17:43;;;;;;;;;;;;;;;20.52;95.73;98922.34;5001635;28;19933;-81
2021/08/20 00:20:09;;;;;;;;;;;;;;;20.03;97.29;98927.59;5000904;28;19929;-80
2021/08/20 00:22:34;;;;;;;;;;;;;;;20.12;98.35;98928.72;4995638;28;19928;-80
2021/08/20 00:25:00;;;;;;;;;;;;;;;20.07;100.00;98933.47;5010513;28;20241;-79
2021/08/20 00:27:26;;;;;;;;;;;;;;;19.75;100.00;98923.53;4996232;28;20554;-79
2021/08/20 00:29:51;;;;;;;;;;;;;;;19.77;100.00;98926.00;4992478;28;19918;-79
2021/08/20 00:32:16;;;;;;;;;;;;;;;19.87;100.00;98921.81;4979959;28;19949;-81
2021/08/20 00:34:41;;;;;;;;;;;;;;;19.87;100.00;98921.81;4996597;28;19913;-79
2021/08/20 00:37:07;;;;;;;;;;;;;;;19.67;100.00;98919.75;5002802;28;19971;-79
2021/08/20 00:39:32;;;;;;;;;;;;;;;19.61;100.00;98923.63;5001603;28;19971;-82
2021/08/20 00:41:58;;;;;;;;;;;;;;;19.98;100.00;98919.25;4994149;28;19917;-81
2021/08/20 00:44:23;;;;;;;;;;;;;;;19.42;100.00;98926.69;4990820;28;20011;-81
2021/08/20 00:46:48;;;;;;;;;;;;;;;19.73;100.00;98919.31;4994908;28;19922;-82
2021/08/20 00:49:14;;;;;;;;;;;;;;;19.71;100.00;98921.25;4994481;28;19972;-80
2021/08/20 00:51:39;;;;;;;;;;;;;;;19.99;96.61;98915.69;5011480;28;19918;-81
2021/08/20 00:54:08;;;;;;;;;;;;;;;20.05;99.96;98915.25;4995554;28;19960;-79
2021/08/20 00:56:34;;;;;;;;;;;;;;;20.10;93.02;98917.53;4993377;28;19917;-79
2021/08/20 00:59:00;;;;;;;;;;;;;;;20.09;95.08;98913.25;4992878;28;19923;-80
2021/08/20 01:01:26;;;;;;;;;;;;;;;20.15;100.00;98911.97;5010055;28;20005;-79
2021/08/20 01:03:51;;;;;;;;;;;;;;;20.04;100.00;98916.19;4993434;28;19917;-80
2021/08/20 01:06:16;;;;;;;;;;;;;;;19.97;100.00;98911.53;5001468;28;19971;-80
2021/08/20 01:08:41;;;;;;;;;;;;;;;19.99;99.56;98905.25;5001773;28;19984;-80
2021/08/20 01:11:08;;;;;;;;;;;;;;;19.92;100.00;98911.84;5003005;28;19996;-81
2021/08/20 01:13:33;;;;;;;;;;;;;;;19.94;100.00;98912.59;4993527;28;19937;-80
2021/08/20 01:15:59;;;;;;;;;;;;;;;19.85;100.00;98908.03;5002420;28;19917;-80
2021/08/20 01:18:25;;;;;;;;;;;;;;;19.85;97.75;98905.41;4995970;28;19918;-81
2021/08/20 01:20:51;;;;;;;;;;;;;;;19.90;100.00;98916.34;4993940;28;19936;-80
2021/08/20 01:23:17;;;;;;;;;;;;;;;19.80;95.99;98910.97;4995465;28;19928;-80
2021/08/20 01:25:43;;;;;;;;;;;;;;;19.82;98.79;98911.69;4998387;28;20016;-80
2021/08/20 01:28:09;;;;;;;;;;;;;;;19.82;95.64;98908.25;4986642;28;20004;-80
2021/08/20 01:30:34;;;;;;;;;;;;;;;19.80;97.21;98910.13;4971508;28;20794;-82
2021/08/20 01:33:00;;;;;;;;;;;;;;;19.64;97.90;98913.78;4993036;28;20369;-82
2021/08/20 01:35:25;;;;;;;;;;;;;;;19.77;94.89;98911.16;4985235;28;19964;-80
2021/08/20 01:37:50;;;;;;;;;;;;;;;19.74;100.00;98913.19;5001845;28;19922;-80
2021/08/20 01:40:16;;;;;;;;;;;;;;;19.71;100.00;98916.03;5005031;28;19918;-79
2021/08/20 01:42:41;;;;;;;;;;;;;;;19.59;95.11;98910.69;5000140;28;19944;-80
2021/08/20 01:45:06;;;;;;;;;;;;;;;19.69;100.00;98912.69;5006244;28;19918;-81
2021/08/20 01:47:32;;;;;;;;;;;;;;;19.57;100.00;98909.97;5005169;28;20434;-80
2021/08/20 01:49:57;;;;;;;;;;;;;;;19.60;97.34;98914.13;5000043;28;20009;-80
2021/08/20 01:52:23;;;;;;;;;;;;;;;19.72;96.47;98907.22;5005468;28;19961;-81
2021/08/20 01:54:48;;;;;;;;;;;;;;;19.68;92.09;98906.56;5000363;28;19965;-80
2021/08/20 01:57:13;;;;;;;;;;;;;;;19.66;99.55;98905.88;4998650;28;19917;-80
2021/08/20 01:59:39;;;;;;;;;;;;;;;19.64;100.00;98911.19;4999597;28;19918;-80
2021/08/20 02:02:04;;;;;;;;;;;;;;;19.65;100.00;98905.00;4995551;28;19956;-81
2021/08/20 02:04:29;;;;;;;;;;;;;;;19.54;96.02;98906.72;5006389;28;20025;-81
2021/08/20 02:06:55;;;;;;;;;;;;;;;19.53;100.00;98903.28;5006509;28;19929;-82
2021/08/20 02:09:20;;;;;;;;;;;;;;;19.50;100.00;98905.25;4999508;28;19924;-79
2021/08/20 02:11:46;;;;;;;;;;;;;;;19.49;100.00;98912.25;4997192;28;19918;-81
2021/08/20 02:14:11;;;;;;;;;;;;;;;19.34;93.12;98895.91;4997087;28;20044;-79
2021/08/20 02:16:36;;;;;;;;;;;;;;;19.21;100.00;98902.91;4995704;28;19957;-79
2021/08/20 02:19:02;;;;;;;;;;;;;;;19.50;100.00;98893.06;4997360;28;20421;-79
2021/08/20 02:21:27;;;;;;;;;;;;;;;19.50;94.40;98895.66;4994960;28;19913;-82
2021/08/20 02:23:52;;;;;;;;;;;;;;;19.37;100.00;98890.44;4997328;28;19921;-81
2021/08/20 02:26:17;;;;;;;;;;;;;;;19.16;100.00;98895.41;4995157;28;22163;-80
2021/08/20 02:28:43;;;;;;;;;;;;;;;19.14;98.48;98894.66;4988655;28;20017;-80
2021/08/20 02:31:08;;;;;;;;;;;;;;;19.43;100.00;98889.16;4988859;28;19980;-82
2021/08/20 02:33:34;;;;;;;;;;;;;;;19.48;100.00;98900.16;5005133;28;19924;-80
2021/08/20 02:36:02;;;;;;;;;;;;;;;19.27;100.00;98892.03;5004435;28;19916;-80
2021/08/20 02:38:27;;;;;;;;;;;;;;;19.12;100.00;98898.31;5005617;28;19922;-81
2021/08/20 02:40:53;;;;;;;;;;;;;;;19.37;100.00;98889.63;5004080;28;19932;-82
2021/08/20 02:43:18;;;;;;;;;;;;;;;19.23;100.00;98891.41;4996477;28;19932;-80
2021/08/20 02:45:43;;;;;;;;;;;;;;;19.14;97.71;98886.00;4997707;28;20020;-81
2021/08/20 02:48:09;;;;;;;;;;;;;;;19.32;100.00;98886.50;5006652;28;19970;-80
2021/08/20 02:50:34;;;;;;;;;;;;;;;19.36;100.00;98885.31;5003663;28;19921;-80
2021/08/20 02:52:59;;;;;;;;;;;;;;;19.20;100.00;98886.41;5001344;28;19914;-80
2021/08/20 02:55:25;;;;;;;;;;;;;;;19.16;94.45;98886.75;4995762;28;19924;-80
2021/08/20 02:57:50;;;;;;;;;;;;;;;18.98;100.00;98899.28;4998194;28;19922;-81
2021/08/20 03:00:16;;;;;;;;;;;;;;;19.02;100.00;98896.34;4997688;28;19918;-80
2021/08/20 03:02:41;;;;;;;;;;;;;;;19.30;100.00;98893.63;4996154;28;19928;-83
2021/08/20 03:05:07;;;;;;;;;;;;;;;19.07;100.00;98901.25;5003716;28;19917;-81
2021/08/20 03:07:32;;;;;;;;;;;;;;;19.14;100.00;98886.00;4995320;28;19922;-81
2021/08/20 03:09:58;;;;;;;;;;;;;;;18.65;100.00;98894.53;4996754;28;19918;-80
2021/08/20 03:12:24;;;;;;;;;;;;;;;18.83;99.77;98898.53;4992639;28;19937;-80
2021/08/20 03:14:50;;;;;;;;;;;;;;;19.00;100.00;98915.66;4999253;28;20083;-82
2021/08/20 03:17:15;;;;;;;;;;;;;;;18.56;100.00;98912.44;4994801;28;20016;-81
2021/08/20 03:19:40;;;;;;;;;;;;;;;18.69;100.00;98917.69;5003726;28;19925;-81
2021/08/20 03:22:06;;;;;;;;;;;;;;;18.61;100.00;98920.00;5002706;28;19917;-80
2021/08/20 03:24:31;;;;;;;;;;;;;;;18.68;100.00;98934.28;4995538;28;19925;-80
2021/08/20 03:26:57;;;;;;;;;;;;;;;18.63;100.00;98928.50;4994873;28;19921;-80
2021/08/20 03:29:22;;;;;;;;;;;;;;;18.72;100.00;98922.69;5003183;28;19922;-80
2021/08/20 03:31:47;;;;;;;;;;;;;;;18.16;100.00;98924.66;4997077;28;20293;-81
2021/08/20 03:34:13;;;;;;;;;;;;;;;17.91;100.00;98926.22;4994595;28;19921;-80
2021/08/20 03:36:39;;;;;;;;;;;;;;;17.62;100.00;98927.19;5002440;28;19924;-80
2021/08/20 03:39:04;;;;;;;;;;;;;;;17.59;100.00;98920.41;4995603;28;19944;-82
2021/08/20 03:41:29;;;;;;;;;;;;;;;18.16;100.00;98919.44;4993648;28;20332;-82
2021/08/20 03:43:55;;;;;;;;;;;;;;;17.42;100.00;98924.03;4995236;28;20000;-80
2021/08/20 03:46:20;;;;;;;;;;;;;;;17.25;100.00;98922.47;4998937;28;19925;-81
2021/08/20 03:48:45;;;;;;;;;;;;;;;17.56;100.00;98933.59;4996844;28;19913;-81
2021/08/20 03:51:11;;;;;;;;;;;;;;;17.66;100.00;98941.69;4994615;28;19956;-82
2021/08/20 03:53:36;;;;;;;;;;;;;;;17.95;100.00;98925.09;5003324;28;19917;-80
2021/08/20 03:56:02;;;;;;;;;;;;;;;18.08;100.00;98925.13;5002475;28;19922;-80
2021/08/20 03:58:27;;;;;;;;;;;;;;;17.79;100.00;98942.59;4994653;28;19922;-80
2021/08/20 04:00:53;;;;;;;;;;;;;;;17.61;100.00;98946.31;5003879;28;20972;-80
2021/08/20 04:03:19;;;;;;;;;;;;;;;18.09;100.00;98947.66;4992466;28;19952;-80
2021/08/20 04:05:44;;;;;;;;;;;;;;;18.09;100.00;98946.84;4997398;28;19921;-80
2021/08/20 04:08:10;;;;;;;;;;;;;;;18.23;100.00;98956.38;4995719;28;19917;-80
2021/08/20 04:10:35;;;;;;;;;;;;;;;18.27;100.00;98948.25;4993745;28;19921;-80
2021/08/20 04:13:00;;;;;;;;;;;;;;;18.44;100.00;98943.72;4995288;28;19949;-80
2021/08/20 04:15:26;;;;;;;;;;;;;;;18.46;100.00;98955.72;5000919;28;19924;-80
2021/08/20 04:17:51;;;;;;;;;;;;;;;18.52;100.00;98957.06;4995345;28;20369;-80
2021/08/20 04:20:16;;;;;;;;;;;;;;;18.43;100.00;98952.47;4993804;28;19960;-80
2021/08/20 04:22:42;;;;;;;;;;;;;;;18.27;100.00;98963.03;5009394;28;19995;-81
2021/08/20 04:25:07;;;;;;;;;;;;;;;18.24;100.00;98956.25;4995481;28;19921;-80
2021/08/20 04:27:33;;;;;;;;;;;;;;;18.58;100.00;98956.69;4995871;28;19917;-80
2021/08/20 04:29:59;;;;;;;;;;;;;;;18.49;100.00;98962.50;4995408;28;19924;-80
2021/08/20 04:32:25;;;;;;;;;;;;;;;17.77;100.00;98981.75;5002225;28;19925;-80
2021/08/20 04:34:50;;;;;;;;;;;;;;;17.23;100.00;98986.78;4993807;28;20364;-82
2021/08/20 04:37:17;;;;;;;;;;;;;;;17.44;100.00;98992.47;5001761;28;19913;-80
2021/08/20 04:39:43;;;;;;;;;;;;;;;17.17;100.00;98994.94;5002911;28;19926;-80
2021/08/20 04:42:08;;;;;;;;;;;;;;;17.34;100.00;99000.00;4993506;28;20012;-82
2021/08/20 04:44:33;;;;;;;;;;;;;;;17.67;100.00;98995.44;4994008;28;20384;-79
2021/08/20 04:46:59;;;;;;;;;;;;;;;18.22;100.00;98981.59;4994892;28;20446;-80
2021/08/20 04:49:24;;;;;;;;;;;;;;;17.56;100.00;98994.34;4992685;28;19914;-81
2021/08/20 04:51:49;;;;;;;;;;;;;;;18.11;100.00;98982.28;5001846;28;19920;-79
2021/08/20 04:54:15;;;;;;;;;;;;;;;18.28;100.00;98986.41;4993516;28;19967;-80
2021/08/20 04:56:40;;;;;;;;;;;;;;;17.97;100.00;98992.72;5001851;28;19946;-80
2021/08/20 04:59:06;;;;;;;;;;;;;;;17.80;100.00;98993.75;4997454;28;19932;-80
2021/08/20 05:01:31;;;;;;;;;;;;;;;18.38;100.00;98984.06;4991475;28;19940;-80
2021/08/20 05:03:57;;;;;;;;;;;;;;;18.20;100.00;98983.47;4994259;28;19929;-79
2021/08/20 05:06:22;;;;;;;;;;;;;;;18.00;100.00;98982.13;4991222;28;19922;-80
2021/08/20 05:08:47;;;;;;;;;;;;;;;18.04;100.00;98987.97;4990525;28;19981;-79
2021/08/20 05:11:13;;;;;;;;;;;;;;;18.37;100.00;98985.81;4993602;28;20033;-80
2021/08/20 05:13:38;;;;;;;;;;;;;;;18.12;100.00;98983.94;4992809;28;19932;-79
2021/08/20 05:16:03;;;;;;;;;;;;;;;18.18;100.00;98991.41;5001937;28;19921;-79
2021/08/20 05:18:29;;;;;;;;;;;;;;;18.05;100.00;98997.47;5018508;28;19964;-79
2021/08/20 05:20:54;;;;;;;;;;;;;;;18.31;100.00;99001.84;5015285;28;19922;-79
2021/08/20 05:23:19;;;;;;;;;;;;;;;17.83;100.00;99004.00;5003861;28;19921;-79
2021/08/20 05:25:45;;;;;;;;;;;;;;;17.78;100.00;99006.03;5004589;28;19925;-79
2021/08/20 05:28:12;;;;;;;;;;;;;;;17.88;100.00;99008.94;5001655;28;19948;-79
2021/08/20 05:30:38;;;;;;;;;;;;;;;18.09;100.00;99012.00;4995690;28;20392;-79
2021/08/20 05:33:03;;;;;;;;;;;;;;;17.98;100.00;99015.25;4990401;28;19922;-79
2021/08/20 05:35:28;;;;;;;;;;;;;;;18.45;100.00;99007.97;4992574;28;19918;-79
2021/08/20 05:37:54;;;;;;;;;;;;;;;18.66;100.00;99009.19;4993361;28;19922;-79
2021/08/20 05:40:19;;;;;;;;;;;;;;;18.09;100.00;99014.59;4992953;28;19981;-79
2021/08/20 05:42:45;;;;;;;;;;;;;;;18.70;100.00;99008.06;4995452;28;20501;-79
2021/08/20 05:45:10;;;;;;;;;;;;;;;18.48;100.00;99013.00;4994763;28;19918;-79
2021/08/20 05:47:36;;;;;;;;;;;;;;;19.06;100.00;99013.59;4993671;28;20332;-79
2021/08/20 05:50:02;;;;;;;;;;;;;;;18.98;100.00;99021.94;5003483;28;19913;-79
2021/08/20 05:52:27;;;;;;;;;;;;;;;18.91;100.00;99011.06;4997240;28;19929;-79
2021/08/20 05:54:52;;;;;;;;;;;;;;;18.51;100.00;99020.63;4998167;28;19921;-79
2021/08/20 05:57:18;;;;;;;;;;;;;;;18.89;100.00;99009.50;4993242;28;19929;-79
2021/08/20 05:59:43;;;;;;;;;;;;;;;18.64;100.00;99015.47;4998145;28;20250;-78
2021/08/20 06:02:08;;;;;;;;;;;;;;;18.53;100.00;99024.78;4997651;28;20376;-79
2021/08/20 06:04:34;;;;;;;;;;;;;;;18.23;100.00;99025.00;4978629;28;19964;-79
2021/08/20 06:06:59;;;;;;;;;;;;;;;17.43;100.00;99042.03;4990682;28;20621;-78
2021/08/20 06:09:24;;;;;;;;;;;;;;;17.89;100.00;99045.31;5003778;28;20367;-78
2021/08/20 06:11:50;;;;;;;;;;;;;;;18.30;100.00;99028.03;5002749;28;19933;-78
2021/08/20 06:14:16;;;;;;;;;;;;;;;18.51;100.00;99020.63;5009116;28;20012;-78
2021/08/20 06:16:41;;;;;;;;;;;;;;;18.39;100.00;99030.91;4995190;28;19925;-79
2021/08/20 06:19:06;;;;;;;;;;;;;;;18.33;100.00;99030.44;5008608;28;19921;-79
2021/08/20 06:21:32;;;;;;;;;;;;;;;18.38;100.00;99038.81;5010278;28;19924;-78
2021/08/20 06:23:57;;;;;;;;;;;;;;;18.55;100.00;99038.56;5007660;28;19918;-79
2021/08/20 06:26:22;;;;;;;;;;;;;;;18.38;100.00;99042.28;5009114;28;20416;-79
2021/08/20 06:28:48;;;;;;;;;;;;;;;18.46;100.00;99040.94;5012309;28;19921;-79
2021/08/20 06:31:13;;;;;;;;;;;;;;;18.27;100.00;99044.72;5009082;28;19921;-79
2021/08/20 06:33:38;;;;;;;;;;;;;;;18.77;100.00;99034.59;5006859;28;19925;-79
2021/08/20 06:36:04;;;;;;;;;;;;;;;19.58;100.00;99034.38;4990794;28;19918;-79
2021/08/20 06:38:29;;;;;;;;;;;;;;;19.15;100.00;99039.91;5008946;28;19972;-79
2021/08/20 06:40:55;;;;;;;;;;;;;;;19.21;100.00;99034.28;5010623;28;19928;-78
2021/08/20 06:43:20;;;;;;;;;;;;;;;19.56;100.00;99032.81;4993407;28;19960;-79
2021/08/20 06:45:46;;;;;;;;;;;;;;;19.37;100.00;99035.88;5016098;28;19928;-79
2021/08/20 06:48:11;;;;;;;;;;;;;;;20.11;100.00;99033.41;5005422;28;19949;-78
2021/08/20 06:50:36;;;;;;;;;;;;;;;19.79;100.00;99037.31;4991171;28;19928;-78
2021/08/20 06:53:02;;;;;;;;;;;;;;;18.93;100.00;99044.88;5009753;28;19918;-78
2021/08/20 06:55:30;;;;;;;;;;;;;;;20.15;100.00;99040.91;5011542;28;20380;-79
2021/08/20 06:57:55;;;;;;;;;;;;;;;20.31;100.00;99032.81;5003154;28;19968;-79
2021/08/20 07:00:21;;;;;;;;;;;;;;;19.91;100.00;99033.03;5009105;28;20032;-79
2021/08/20 07:02:46;;;;;;;;;;;;;;;20.46;100.00;99042.19;5009620;28;19957;-79
2021/08/20 07:05:12;;;;;;;;;;;;;;;20.11;100.00;99049.09;5009884;28;19932;-78
2021/08/20 07:07:38;;;;;;;;;;;;;;;20.16;100.00;99041.75;5008773;28;19926;-79
2021/08/20 07:10:21;;;;;;;;;;;;;;;20.20;100.00;99044.03;5008776;28;20380;-79
2021/08/20 07:12:47;;;;;;;;;;;;;;;19.44;100.00;99044.94;4987686;28;19909;-78
2021/08/20 07:15:13;;;;;;;;;;;;;;;19.68;100.00;99044.22;5008546;28;19918;-79
2021/08/20 07:17:38;;;;;;;;;;;;;;;20.58;100.00;99042.28;5010645;28;19929;-78
2021/08/20 07:20:05;;;;;;;;;;;;;;;20.94;98.73;99041.34;5008127;28;19917;-78
2021/08/20 07:22:30;;;;;;;;;;;;;;;20.25;100.00;99030.63;5010348;28;20007;-78
2021/08/20 07:24:56;;;;;;;;;;;;;;;20.83;98.35;99036.91;5004043;28;19953;-78
2021/08/20 07:27:21;;;;;;;;;;;;;;;21.12;96.88;99030.44;5003797;28;19914;-79
2021/08/20 07:29:47;;;;;;;;;;;;;;;21.97;91.84;99036.16;5008478;28;19957;-78
2021/08/20 07:32:12;;;;;;;;;;;;;;;20.48;100.00;99048.16;5007225;28;19972;-78
2021/08/20 07:34:37;;;;;;;;;;;;;;;20.81;97.74;99037.97;5009392;28;20262;-79
2021/08/20 07:37:03;;;;;;;;;;;;;;;22.02;92.51;99035.78;4994530;28;19922;-79
2021/08/20 07:39:30;;;;;;;;;;;;;;;21.43;95.65;99034.22;4995896;28;19921;-79
2021/08/20 07:41:55;;;;;;;;;;;;;;;21.29;98.68;99032.63;5011470;28;19925;-78
2021/08/20 07:44:20;;;;;;;;;;;;;;;22.06;90.98;99026.75;5006898;28;19914;-79
2021/08/20 07:46:46;;;;;;;;;;;;;;;22.37;89.21;99029.56;5009337;28;19925;-79
2021/08/20 07:49:11;;;;;;;;;;;;;;;21.25;95.36;99041.66;5008157;28;19918;-79
2021/08/20 07:51:37;;;;;;;;;;;;;;;20.08;100.00;99047.53;5002252;28;19932;-78
2021/08/20 07:54:02;;;;;;;;;;;;;;;20.62;100.00;99055.03;4992278;28;19995;-79
2021/08/20 07:56:27;;;;;;;;;;;;;;;22.05;93.21;99039.00;5011967;28;19925;-78
2021/08/20 07:58:53;;;;;;;;;;;;;;;23.00;90.81;99045.47;5006485;28;19930;-78
2021/08/20 08:01:18;;;;;;;;;;;;;;;22.65;83.92;99046.50;5005659;28;19985;-78
2021/08/20 08:03:43;;;;;;;;;;;;;;;21.82;86.01;99043.41;5013736;28;19971;-78
2021/08/20 08:06:13;;;;;;;;;;;;;;;22.02;87.85;99044.50;5007981;28;20063;-78
2021/08/20 08:08:41;;;;;;;;;;;;;;;22.80;84.61;99047.91;5007462;28;20293;-78
2021/08/20 08:11:07;;;;;;;;;;;;;;;24.13;80.00;99054.25;5010264;28;19996;-78
2021/08/20 08:13:32;;;;;;;;;;;;;;;23.13;79.95;99046.13;5007310;28;20065;-79
2021/08/20 08:15:57;;;;;;;;;;;;;;;21.99;91.31;99054.41;5005129;28;19925;-78
2021/08/20 08:18:23;;;;;;;;;;;;;;;22.42;87.23;99057.13;5015468;28;19925;-78
2021/08/20 08:20:48;;;;;;;;;;;;;;;23.25;79.78;99060.84;5006295;28;19913;-78
2021/08/20 08:23:14;;;;;;;;;;;;;;;22.64;84.91;99063.25;5011387;28;19918;-79
2021/08/20 08:25:39;;;;;;;;;;;;;;;23.58;82.85;99075.59;5007152;28;19918;-78
2021/08/20 08:28:04;;;;;;;;;;;;;;;22.91;87.23;99071.50;5005507;28;19965;-78
2021/08/20 08:30:34;;;;;;;;;;;;;;;23.02;84.18;99077.69;5008082;28;20283;-78
2021/08/20 08:33:00;;;;;;;;;;;;;;;23.00;80.07;99077.00;5002911;28;20021;-78
2021/08/20 08:35:28;;;;;;;;;;;;;;;21.29;99.06;99080.63;5003749;28;19925;-78
2021/08/20 08:38:00;;;;;;;;;;;;;;;20.53;100.00;99091.47;5014672;28;20510;-79
2021/08/20 08:40:26;;;;;;;;;;;;;;;20.44;100.00;99088.53;4985281;28;19917;-78
2021/08/20 08:42:52;;;;;;;;;;;;;;;21.28;99.12;99078.97;5007794;28;19917;-78
2021/08/20 08:45:18;;;;;;;;;;;;;;;23.75;88.47;99076.78;4991496;28;20440;-78
2021/08/20 08:47:43;;;;;;;;;;;;;;;24.55;81.83;99075.13;5012160;28;19918;-78
2021/08/20 08:50:09;;;;;;;;;;;;;;;25.55;73.73;99068.72;5008512;28;19924;-78
2021/08/20 08:52:34;;;;;;;;;;;;;;;24.76;80.45;99076.81;5013645;28;19971;-78
2021/08/20 08:55:01;;;;;;;;;;;;;;;24.67;75.66;99073.22;5010483;28;19957;-77
2021/08/20 08:57:27;;;;;;;;;;;;;;;24.90;74.72;99072.94;5009574;28;19957;-78
2021/08/20 08:59:52;;;;;;;;;;;;;;;23.72;84.75;99082.31;5009195;28;19917;-79
2021/08/20 09:02:21;;;;;;;;;;;;;;;24.43;74.89;99082.28;5012945;28;20000;-78
2021/08/20 09:05:10;;;;;;;;;;;;;;;22.37;86.15;99088.09;5009108;28;19933;-79
2021/08/20 09:07:35;;;;;;;;;;;;;;;22.50;89.72;99086.19;4993702;28;19924;-78
2021/08/20 09:10:15;;;;;;;;;;;;;;;24.17;75.79;99081.94;5008662;28;19918;-78
2021/08/20 09:12:41;;;;;;;;;;;;;;;21.93;89.09;99089.78;4988664;28;19926;-78
2021/08/20 09:15:07;;;;;;;;;;;;;;;21.39;96.94;99086.00;5012848;28;19918;-78
2021/08/20 09:17:35;;;;;;;;;;;;;;;23.43;88.36;99082.13;5012122;28;20271;-78
2021/08/20 09:20:19;;;;;;;;;;;;;;;24.04;80.78;99078.72;5009364;28;19992;-79
2021/08/20 09:22:44;;;;;;;;;;;;;;;23.28;92.40;99089.50;5008329;28;20407;-79
2021/08/20 09:25:27;;;;;;;;;;;;;;;25.28;76.35;99085.28;4998201;28;20063;-79
2021/08/20 09:28:03;;;;;;;;;;;;;;;24.76;73.58;99088.19;5007939;28;19924;-79
2021/08/20 09:30:28;;;;;;;;;;;;;;;22.65;88.15;99101.66;5013821;28;19921;-79
2021/08/20 09:32:54;;;;;;;;;;;;;;;23.76;87.00;99098.66;4993826;28;19917;-78
2021/08/20 09:35:20;;;;;;;;;;;;;;;22.80;93.34;99097.78;4992822;28;19922;-78
2021/08/20 09:37:45;;;;;;;;;;;;;;;21.29;100.00;99101.56;5017048;28;19925;-79
2021/08/20 09:40:13;;;;;;;;;;;;;;;22.00;90.85;99101.47;5007740;28;20434;-78
2021/08/20 09:42:39;;;;;;;;;;;;;;;23.39;88.31;99097.31;4995419;28;20288;-79
2021/08/20 09:45:11;;;;;;;;;;;;;;;23.35;83.24;99105.59;5009948;28;19918;-79
2021/08/20 09:47:40;;;;;;;;;;;;;;;22.94;82.44;99102.78;5010414;28;20032;-79
2021/08/20 09:50:05;;;;;;;;;;;;;;;22.81;94.08;99104.72;5011944;28;20274;-79
2021/08/20 09:52:31;;;;;;;;;;;;;;;24.93;73.99;99093.72;5012204;28;19925;-78
2021/08/20 09:54:57;;;;;;;;;;;;;;;24.34;78.34;99105.97;5011000;28;19921;-78
2021/08/20 09:57:28;;;;;;;;;;;;;;;23.74;77.13;99101.44;5012650;28;19925;-79
2021/08/20 09:59:55;;;;;;;;;;;;;;;24.01;79.77;99102.66;5015952;28;19905;-79
2021/08/20 10:02:22;;;;;;;;;;;;;;;24.14;71.25;99103.25;5012686;28;19925;-79
2021/08/20 10:04:47;;;;;;;;;;;;;;;24.46;67.41;99101.44;5010404;28;19956;-80
2021/08/20 10:07:16;;;;;;;;;;;;;;;24.20;68.53;99097.47;5003170;28;19957;-78
2021/08/20 10:09:41;;;;;;;;;;;;;;;26.25;73.69;99097.34;5013101;28;20289;-79
2021/08/20 10:12:07;;;;;;;;;;;;;;;26.44;61.41;99097.25;5012113;28;19921;-79
2021/08/20 10:14:32;;;;;;;;;;;;;;;25.72;62.43;99090.88;5007306;28;20040;-79
2021/08/20 10:16:57;;;;;;;;;;;;;;;24.38;72.25;99099.44;5012141;28;20003;-79
2021/08/20 10:19:23;;;;;;;;;;;;;;;25.98;64.26;99091.09;5011982;28;19922;-79
2021/08/20 10:21:48;;;;;;;;;;;;;;;26.94;78.31;99093.34;5011347;28;19917;-79
2021/08/20 10:24:14;;;;;;;;;;;;;;;27.17;59.41;99084.94;5009156;28;19914;-79
2021/08/20 10:26:41;;;;;;;;;;;;;;;25.96;57.74;99084.31;5007558;28;20305;-79
2021/08/20 10:29:06;;;;;;;;;;;;;;;25.69;63.65;99088.53;5011318;28;19918;-79
2021/08/20 10:31:32;;;;;;;;;;;;;;;23.44;74.13;99098.72;5012187;28;20299;-79
2021/08/20 10:33:57;;;;;;;;;;;;;;;23.73;69.63;99091.84;5007280;28;19921;-79
2021/08/20 10:36:38;;;;;;;;;;;;;;;24.79;61.83;99087.06;5005071;28;19926;-79
2021/08/20 10:39:04;;;;;;;;;;;;;;;23.14;67.96;99092.44;5011590;28;19910;-79
2021/08/20 10:41:29;;;;;;;;;;;;;;;24.17;68.91;99102.16;5014274;28;19933;-79
2021/08/20 10:43:59;;;;;;;;;;;;;;;23.47;71.26;99094.06;5007508;28;20293;-79
2021/08/20 10:46:37;;;;;;;;;;;;;;;25.03;69.81;99092.78;5006758;28;20397;-79
2021/08/20 10:51:59;;;;;;;;;;;;;;;24.93;74.53;99101.63;4989275;28;19924;-79
2021/08/20 10:54:33;;;;;;;;;;;;;;;24.06;69.94;99100.44;4987635;28;19918;-79
2021/08/20 10:56:59;;;;;;;;;;;;;;;23.62;80.61;99106.88;5002112;28;19964;-78
2021/08/20 10:59:33;;;;;;;;;;;;;;;24.00;77.15;99103.63;5013601;28;19918;-79
2021/08/20 11:02:18;;;;;;;;;;;;;;;24.38;73.01;99112.59;5011660;28;19932;-78
2021/08/20 11:04:59;;;;;;;;;;;;;;;26.33;62.58;99105.38;4991010;28;19921;-79
2021/08/20 11:07:41;;;;;;;;;;;;;;;23.59;72.10;99107.97;5009533;28;19964;-79
2021/08/20 11:10:09;;;;;;;;;;;;;;;22.54;79.94;99113.84;5008506;28;19918;-79
2021/08/20 11:13:07;;;;;;;;;;;;;;;24.61;78.03;99108.84;4984403;28;19925;-79
2021/08/20 11:15:32;;;;;;;;;;;;;;;23.79;75.62;99112.41;4996795;28;19917;-79
2021/08/20 11:17:58;;;;;;;;;;;;;;;25.11;65.45;99107.03;4989943;28;20823;-79
2021/08/20 11:20:43;;;;;;;;;;;;;;;25.86;79.13;99103.63;5005374;28;19926;-79
2021/08/20 11:23:12;;;;;;;;;;;;;;;24.27;72.92;99112.72;4982959;28;19957;-79
2021/08/20 11:25:37;;;;;;;;;;;;;;;23.97;67.39;99115.25;4987296;28;19918;-79
2021/08/20 11:28:04;;;;;;;;;;;;;;;23.25;76.97;99110.78;5002981;28;20032;-79
2021/08/20 11:30:30;;;;;;;;;;;;;;;24.82;71.38;99102.63;4993659;28;19924;-79
2021/08/20 11:33:15;;;;;;;;;;;;;;;25.03;67.36;99102.47;5003920;28;19921;-79
2021/08/20 11:35:41;;;;;;;;;;;;;;;24.48;68.83;99110.88;5000491;28;19941;-78
2021/08/20 11:38:07;;;;;;;;;;;;;;;26.37;58.05;99100.66;5009256;28;19921;-78
2021/08/20 11:40:33;;;;;;;;;;;;;;;24.70;70.20;99111.59;5005447;28;19944;-78
2021/08/20 11:43:09;;;;;;;;;;;;;;;23.95;76.92;99111.09;5005669;28;19922;-78
2021/08/20 11:45:35;;;;;;;;;;;;;;;24.43;76.20;99116.53;5008189;28;19983;-78
2021/08/20 11:48:00;;;;;;;;;;;;;;;23.66;75.65;99108.28;5004409;28;19917;-78
2021/08/20 11:50:29;;;;;;;;;;;;;;;23.99;78.54;99110.69;5009088;28;19917;-78
2021/08/20 11:52:55;;;;;;;;;;;;;;;24.69;68.43;99105.50;5002002;28;19918;-78
2021/08/20 11:55:20;;;;;;;;;;;;;;;24.69;65.03;99107.31;5004357;28;19944;-78
2021/08/20 11:57:45;;;;;;;;;;;;;;;26.82;60.33;99100.66;5008269;28;19918;-78
2021/08/20 12:00:11;;;;;;;;;;;;;;;25.68;72.30;99105.31;5005044;28;20274;-77
2021/08/20 12:02:37;;;;;;;;;;;;;;;26.83;56.26;99101.50;5002555;28;19909;-78
2021/08/20 12:05:21;;;;;;;;;;;;;;;25.70;70.85;99110.47;4990088;28;19961;-78
2021/08/20 12:07:47;;;;;;;;;;;;;;;24.03;70.07;99111.25;4990887;28;19914;-78
2021/08/20 12:10:13;;;;;;;;;;;;;;;27.46;61.75;99111.97;4981665;28;20925;-78
2021/08/20 12:12:39;;;;;;;;;;;;;;;27.27;57.20;99104.19;5013263;28;19921;-78
2021/08/20 12:15:05;;;;;;;;;;;;;;;26.13;70.41;99115.19;4989667;28;19959;-77
2021/08/20 12:17:31;;;;;;;;;;;;;;;24.49;77.19;99115.16;5011458;28;20308;-77
2021/08/20 12:19:58;;;;;;;;;;;;;;;24.93;63.79;99104.28;5001102;28;20377;-77
2021/08/20 12:22:33;;;;;;;;;;;;;;;24.38;69.81;99109.97;5005479;28;20448;-77
2021/08/20 12:24:58;;;;;;;;;;;;;;;24.90;71.88;99107.19;5008135;28;19921;-77
2021/08/20 12:27:26;;;;;;;;;;;;;;;24.07;73.71;99111.84;5004092;28;19921;-77
2021/08/20 12:29:57;;;;;;;;;;;;;;;24.91;66.41;99106.25;5013938;28;19963;-78
2021/08/20 12:32:28;;;;;;;;;;;;;;;26.56;62.45;99105.84;4999946;28;19926;-78
2021/08/20 12:34:58;;;;;;;;;;;;;;;25.82;61.23;99104.88;4993615;28;20381;-78
2021/08/20 12:37:23;;;;;;;;;;;;;;;25.10;58.56;99113.31;5004873;28;19917;-78
2021/08/20 12:39:49;;;;;;;;;;;;;;;24.87;70.10;99116.22;5008843;28;19928;-78